Terminal Aerodrome Forecast
Issued by NWS Amarillo, TX

Home | Current Version | Previous Version | Text Only | Print | Product List | Glossary On
Versions: 1 2 3 4 5 6 7 8 9 10 11 12 13 14 15
520
FTUS44 KAMA 281720
TAFGUY
TAF
KGUY 281720Z 2818/2918 VRB05KT P6SM SKC
     FM282000 18009KT P6SM SCT090
     FM291200 15013KT P6SM OVC030=

USA.gov is the U.S. government's official web portal to all federal, state and local government web resources and services.